createdAt,value
2016-11-09T00:00:12.432Z,4.5
2016-11-09T00:01:22.715Z,4.44
2016-11-09T00:02:33.003Z,4.32
2016-11-09T00:03:42.986Z,4.35
2016-11-09T00:04:52.700Z,4.33
2016-11-09T00:06:02.680Z,4.35
2016-11-09T00:07:12.356Z,4.48
2016-11-09T00:08:22.317Z,4.4
2016-11-09T00:09:32.309Z,4.38
2016-11-09T00:10:42.596Z,4.38
2016-11-09T00:11:52.568Z,4.35
2016-11-09T00:13:02.851Z,4.36
2016-11-09T00:14:12.811Z,4.4
2016-11-09T00:15:23.131Z,4.36
2016-11-09T00:16:33.094Z,4.38
2016-11-09T00:17:43.104Z,4.33
2016-11-09T00:18:53.376Z,4.47
2016-11-09T00:20:03.034Z,4.44
2016-11-09T00:21:13.363Z,4.36
2016-11-09T00:22:23.038Z,4.36
2016-11-09T00:23:33.326Z,4.42
2016-11-09T00:24:43.288Z,4.38
2016-11-09T00:25:52.939Z,4.36
2016-11-09T00:27:03.229Z,4.4
2016-11-09T00:28:13.202Z,4.36
2016-11-09T00:29:22.857Z,4.38
2016-11-09T00:30:32.857Z,4.39
2016-11-09T00:31:42.854Z,4.4
2016-11-09T00:32:53.133Z,4.38
2016-11-09T00:34:03.405Z,4.42
2016-11-09T00:35:13.373Z,4.38
2016-11-09T00:36:23.347Z,4.39
2016-11-09T00:37:33.311Z,4.38
2016-11-09T00:38:43.273Z,4.32
2016-11-09T00:39:53.569Z,4.4
2016-11-09T00:41:03.842Z,4.29
2016-11-09T00:42:13.823Z,4.2
2016-11-09T00:43:24.103Z,4.35
2016-11-09T00:44:34.066Z,4.32
2016-11-09T00:45:44.029Z,4.36
2016-11-09T00:46:54.301Z,4.24
2016-11-09T00:48:04.581Z,4.15
2016-11-09T00:49:14.849Z,4.32
2016-11-09T00:50:24.810Z,4.29
2016-11-09T00:51:35.068Z,4.29
2016-11-09T00:52:45.338Z,4.2
2016-11-09T00:53:55.614Z,4.26
2016-11-09T00:55:05.302Z,4.32
2016-11-09T00:56:15.318Z,4.29
2016-11-09T00:57:25.604Z,4.22
2016-11-09T00:58:35.258Z,4.24
2016-11-09T00:59:45.540Z,4.29
2016-11-09T01:00:55.812Z,4.15
2016-11-09T01:02:06.089Z,4.17
2016-11-09T01:03:16.049Z,4.17
2016-11-09T01:04:26.334Z,4.18
2016-11-09T01:05:36.611Z,4.12
2016-11-09T01:06:46.888Z,4.22
2016-11-09T01:07:56.860Z,4.2
2016-11-09T01:09:06.827Z,4.21
2016-11-09T01:10:16.805Z,4.24
2016-11-09T01:11:27.089Z,4.18
2016-11-09T01:12:36.748Z,4.2
2016-11-09T01:13:46.399Z,4.18
2016-11-09T01:14:56.660Z,4.2
2016-11-09T01:16:06.318Z,4.24
2016-11-09T01:17:16.311Z,4.17
2016-11-09T01:18:26.285Z,4.14
2016-11-09T01:19:36.598Z,4.12
2016-11-09T01:20:46.609Z,4.21
2016-11-09T01:21:56.573Z,4.15
2016-11-09T01:23:06.253Z,4.2
2016-11-09T01:24:16.544Z,4.22
2016-11-09T01:25:26.545Z,4.17
2016-11-09T01:26:36.888Z,4.18
2016-11-09T01:27:47.163Z,4.28
2016-11-09T01:28:57.462Z,4.15
2016-11-09T01:30:07.428Z,4.21
2016-11-09T01:31:17.721Z,4.12
2016-11-09T01:32:27.994Z,4.08
2016-11-09T01:33:37.969Z,4.07
2016-11-09T01:34:48.229Z,4.08
2016-11-09T01:35:58.201Z,3.97
2016-11-09T01:37:08.168Z,4.03
2016-11-09T01:38:17.816Z,4.03
2016-11-09T01:39:28.117Z,3.96
2016-11-09T01:40:37.777Z,3.92
2016-11-09T01:41:47.741Z,3.9
2016-11-09T01:42:57.712Z,3.84
2016-11-09T01:44:07.984Z,3.84
2016-11-09T01:45:17.942Z,3.78
2016-11-09T01:46:27.911Z,3.76
2016-11-09T01:47:37.883Z,3.78
2016-11-09T01:48:48.155Z,3.78
2016-11-09T01:49:58.411Z,3.76
2016-11-09T01:51:08.402Z,3.84
2016-11-09T01:52:17.757Z,3.82
2016-11-09T01:53:27.417Z,3.86
2016-11-09T01:54:37.700Z,3.71
2016-11-09T01:55:47.985Z,3.72
2016-11-09T01:56:58.002Z,3.71
2016-11-09T01:58:08.270Z,3.72
2016-11-09T01:59:17.930Z,3.76
2016-11-09T02:00:28.217Z,3.72
2016-11-09T02:01:38.490Z,3.74
2016-11-09T02:02:48.456Z,3.71
2016-11-09T02:03:58.442Z,3.64
2016-11-09T02:05:08.715Z,3.63
2016-11-09T02:06:18.974Z,3.63
2016-11-09T02:07:28.948Z,3.57
2016-11-09T02:08:38.603Z,3.63
2016-11-09T02:09:48.590Z,3.63
2016-11-09T02:10:58.563Z,3.61
2016-11-09T02:12:08.214Z,3.63
2016-11-09T02:13:18.496Z,3.66
2016-11-09T02:14:28.469Z,3.64
2016-11-09T02:15:38.749Z,3.6
2016-11-09T02:16:48.723Z,3.6
2016-11-09T02:17:58.686Z,3.69
2016-11-09T02:19:08.987Z,3.63
2016-11-09T02:20:18.958Z,3.64
2016-11-09T02:21:29.234Z,3.66
2016-11-09T02:22:39.224Z,3.61
2016-11-09T02:23:49.197Z,3.53
2016-11-09T02:24:59.481Z,3.54
2016-11-09T02:26:09.448Z,3.64
2016-11-09T02:27:19.711Z,3.61
2016-11-09T02:28:29.986Z,3.54
2016-11-09T02:29:39.968Z,3.53
2016-11-09T02:30:50.240Z,3.63
2016-11-09T02:32:00.510Z,3.61
2016-11-09T02:33:10.790Z,3.61
2016-11-09T02:34:20.761Z,3.64
2016-11-09T02:35:31.042Z,3.64
2016-11-09T02:36:41.318Z,3.66
2016-11-09T02:37:51.630Z,3.63
2016-11-09T02:39:00.977Z,3.61
2016-11-09T02:40:11.253Z,3.63
2016-11-09T02:41:21.221Z,3.54
2016-11-09T02:42:31.483Z,3.49
2016-11-09T02:43:41.789Z,3.54
2016-11-09T02:44:52.051Z,3.58
2016-11-09T02:46:02.012Z,3.51
2016-11-09T02:47:11.673Z,3.54
2016-11-09T02:48:21.340Z,3.51
2016-11-09T02:49:30.990Z,3.58
2016-11-09T02:50:41.266Z,3.56
2016-11-09T02:51:51.559Z,3.56
2016-11-09T02:53:01.836Z,3.57
2016-11-09T02:54:12.123Z,3.61
2016-11-09T02:55:22.386Z,3.56
2016-11-09T02:56:32.072Z,3.53
2016-11-09T02:57:42.349Z,3.53
2016-11-09T02:58:52.317Z,3.51
2016-11-09T03:00:02.027Z,3.49
2016-11-09T03:01:12.292Z,3.51
2016-11-09T03:32:16.278Z,0.24
2016-11-09T03:33:26.551Z,0.2
2016-11-09T03:34:36.514Z,0.21
2016-11-09T03:35:46.479Z,0.13
2016-11-09T03:36:56.765Z,0.32
2016-11-09T03:38:06.731Z,0.42
2016-11-09T03:39:17.009Z,0.58
2016-11-09T03:40:27.286Z,0.82
2016-11-09T03:41:36.926Z,0.97
2016-11-09T03:42:47.198Z,1.15
2016-11-09T03:43:56.852Z,1.29
2016-11-09T03:45:06.823Z,1.46
2016-11-09T03:46:17.099Z,1.54
2016-11-09T03:47:27.084Z,1.79
2016-11-09T03:48:37.047Z,1.82
2016-11-09T03:49:46.703Z,2.05
2016-11-09T03:50:56.674Z,2.08
2016-11-09T03:52:06.687Z,2.18
2016-11-09T03:53:16.958Z,2.27
2016-11-09T03:54:26.930Z,2.44
2016-11-09T03:55:36.907Z,2.48
2016-11-09T03:56:46.569Z,2.55
2016-11-09T03:57:56.561Z,2.65
2016-11-09T03:59:06.531Z,2.6
2016-11-09T04:00:16.526Z,2.76
2016-11-09T04:01:26.801Z,2.77
2016-11-09T04:02:37.077Z,2.77
2016-11-09T04:03:46.419Z,2.84
2016-11-09T04:04:56.736Z,2.91
2016-11-09T04:06:06.703Z,2.95
2016-11-09T04:07:16.980Z,2.96
2016-11-09T04:08:26.637Z,3.11
2016-11-09T04:09:36.608Z,3.08
2016-11-09T04:10:46.921Z,3.13
2016-11-09T04:11:57.185Z,3.08
2016-11-09T04:13:07.157Z,3.08
2016-11-09T04:14:16.818Z,3.13
2016-11-09T04:15:26.802Z,3.11
2016-11-09T04:16:36.459Z,3.11
2016-11-09T04:17:46.429Z,3.13
2016-11-09T04:18:56.696Z,3.19
2016-11-09T04:20:06.352Z,3.11
2016-11-09T04:21:16.624Z,3.16
2016-11-09T04:22:26.267Z,3.16
2016-11-09T04:23:36.247Z,3.21
2016-11-09T04:24:46.519Z,3.24
2016-11-09T04:25:56.787Z,3.24
2016-11-09T04:27:06.757Z,3.21
2016-11-09T04:28:17.038Z,3.39
2016-11-09T04:29:27.001Z,3.37
2016-11-09T04:30:37.277Z,3.34
2016-11-09T04:31:47.235Z,3.29
2016-11-09T04:32:57.205Z,3.35
2016-11-09T04:34:06.578Z,3.4
2016-11-09T04:35:16.845Z,3.39
2016-11-09T04:36:26.822Z,3.37
2016-11-09T04:37:36.793Z,3.39
2016-11-09T04:38:46.445Z,3.35
2016-11-09T04:39:56.424Z,3.32
2016-11-09T04:41:06.392Z,3.39
2016-11-09T04:42:16.663Z,3.3
2016-11-09T04:43:26.936Z,3.46
2016-11-09T04:44:36.894Z,3.39
2016-11-09T04:45:46.864Z,3.37
2016-11-09T04:46:56.828Z,3.39
2016-11-09T04:48:07.099Z,3.4
2016-11-09T04:49:17.374Z,3.37
2016-11-09T04:50:27.351Z,3.37
2016-11-09T04:51:37.623Z,3.43
2016-11-09T04:52:47.268Z,3.3
2016-11-09T04:53:57.228Z,3.35
2016-11-09T04:55:07.501Z,3.27
2016-11-09T04:56:17.498Z,3.27
2016-11-09T04:57:27.763Z,3.3
2016-11-09T04:58:38.051Z,3.26
2016-11-09T04:59:48.023Z,3.19
2016-11-09T05:00:58.287Z,3.13
2016-11-09T05:02:08.557Z,3.16
2016-11-09T05:03:18.530Z,3.16
2016-11-09T05:04:28.505Z,3.17
2016-11-09T05:05:38.784Z,3.13
2016-11-09T05:06:49.050Z,3.21
2016-11-09T05:07:59.017Z,3.26
2016-11-09T05:09:08.978Z,3.26
2016-11-09T05:10:18.630Z,3.26
2016-11-09T05:11:28.593Z,3.26
2016-11-09T05:12:38.872Z,3.34
2016-11-09T05:13:48.534Z,3.34
2016-11-09T05:14:59.042Z,3.39
2016-11-09T05:16:09.022Z,3.29
2016-11-09T05:17:19.304Z,3.32
2016-11-09T05:18:29.575Z,3.29
2016-11-09T05:19:39.538Z,3.35
2016-11-09T05:20:49.800Z,3.34
2016-11-09T05:22:00.083Z,3.34
2016-11-09T05:23:10.357Z,3.32
2016-11-09T05:24:20.625Z,3.37
2016-11-09T05:25:30.018Z,3.34
2016-11-09T05:26:40.280Z,3.45
2016-11-09T05:27:49.935Z,3.45
2016-11-09T05:28:59.916Z,3.42
2016-11-09T05:30:09.895Z,3.48
2016-11-09T05:31:19.862Z,3.51
2016-11-09T05:32:29.551Z,3.46
2016-11-09T05:33:39.526Z,3.56
2016-11-09T05:34:49.794Z,3.53
2016-11-09T05:35:59.451Z,3.57
2016-11-09T05:37:09.738Z,3.49
2016-11-09T05:38:19.715Z,3.61
2016-11-09T05:39:29.065Z,3.54
2016-11-09T05:40:39.342Z,3.64
2016-11-09T05:41:48.985Z,3.63
2016-11-09T05:42:59.299Z,3.58
2016-11-09T05:44:09.264Z,3.61
2016-11-09T05:45:19.545Z,3.67
2016-11-09T05:46:29.502Z,3.69
2016-11-09T05:47:39.165Z,3.66
2016-11-09T05:48:49.437Z,3.64
2016-11-09T05:49:59.723Z,3.72
2016-11-09T05:51:09.684Z,3.78
2016-11-09T05:52:19.976Z,3.79
2016-11-09T05:53:29.947Z,3.84
2016-11-09T05:54:40.228Z,3.82
2016-11-09T05:55:50.492Z,3.86
2016-11-09T05:57:00.467Z,3.9
2016-11-09T05:58:10.749Z,3.86
2016-11-09T05:59:21.026Z,3.86
2016-11-09T06:00:31.542Z,3.94
2016-11-09T06:01:41.498Z,3.85
2016-11-09T06:02:51.768Z,3.85
2016-11-09T06:04:02.078Z,3.93
2016-11-09T06:05:12.373Z,4
2016-11-09T06:06:22.341Z,3.96
2016-11-09T06:07:31.692Z,3.94
2016-11-09T06:08:41.955Z,3.99
2016-11-09T06:09:51.625Z,4.04
2016-11-09T06:11:01.278Z,4.15
2016-11-09T06:12:11.253Z,4.1
2016-11-09T06:13:21.530Z,4.18
2016-11-09T06:14:31.494Z,4.17
2016-11-09T06:15:41.809Z,4.14
2016-11-09T06:16:51.475Z,4.2
2016-11-09T06:18:01.440Z,4.26
2016-11-09T06:19:11.402Z,4.26
2016-11-09T06:20:21.671Z,4.17
2016-11-09T06:21:31.988Z,4.18
2016-11-09T06:22:41.955Z,4.46
2016-11-09T06:23:52.261Z,4.42
2016-11-09T06:25:02.549Z,4.44
2016-11-09T06:26:12.828Z,4.4
2016-11-09T06:27:22.811Z,4.54
2016-11-09T06:28:32.772Z,4.47
2016-11-09T06:29:42.760Z,4.58
2016-11-09T06:30:52.726Z,4.61
2016-11-09T06:32:02.707Z,4.72
2016-11-09T06:33:12.988Z,4.68
2016-11-09T06:34:22.636Z,4.75
2016-11-09T06:35:32.893Z,4.83
2016-11-09T06:36:42.549Z,4.79
2016-11-09T06:37:52.557Z,4.87
2016-11-09T06:39:02.518Z,4.92
2016-11-09T06:40:12.511Z,5.05
2016-11-09T06:41:22.790Z,5
2016-11-09T06:42:33.057Z,5.09
2016-11-09T06:43:42.720Z,5.16
2016-11-09T06:44:52.996Z,5.13
2016-11-09T06:46:02.968Z,5.24
2016-11-09T06:47:13.234Z,5.31
2016-11-09T06:48:23.201Z,5.37
2016-11-09T06:49:33.193Z,5.51
2016-11-09T06:50:43.164Z,5.57
2016-11-09T06:51:53.131Z,5.66
2016-11-09T06:53:03.154Z,5.75
2016-11-09T06:54:13.425Z,5.85
2016-11-09T06:55:23.386Z,5.96
2016-11-09T06:56:33.644Z,5.89
2016-11-09T06:57:43.909Z,6.13
2016-11-09T06:58:53.876Z,6.29
2016-11-09T07:00:03.844Z,6.31
2016-11-09T07:01:13.506Z,6.51
2016-11-09T07:02:23.785Z,6.65
2016-11-09T07:03:33.748Z,6.72
2016-11-09T07:04:43.405Z,6.79
2016-11-09T07:05:53.843Z,6.88
2016-11-09T07:07:04.148Z,6.88
2016-11-09T07:08:14.120Z,6.83
2016-11-09T07:09:24.087Z,6.86
2016-11-09T07:10:34.369Z,6.86
2016-11-09T07:11:44.359Z,6.79
2016-11-09T07:12:54.652Z,6.82
2016-11-09T07:14:04.653Z,6.82
2016-11-09T07:15:14.929Z,6.94
2016-11-09T07:16:25.197Z,6.94
2016-11-09T07:17:35.210Z,6.97
2016-11-09T07:18:45.189Z,6.94
2016-11-09T07:19:55.163Z,7.03
2016-11-09T07:21:05.448Z,7.01
2016-11-09T07:22:15.725Z,7.05
2016-11-09T07:23:25.691Z,7.03
2016-11-09T07:24:35.655Z,7.16
2016-11-09T07:25:45.655Z,7.21
2016-11-09T07:26:55.934Z,7.22
2016-11-09T07:28:05.903Z,7.23
2016-11-09T07:29:15.555Z,7.4
2016-11-09T07:30:25.528Z,7.37
2016-11-09T07:31:35.858Z,7.45
2016-11-09T07:32:46.160Z,7.45
2016-11-09T07:33:56.442Z,7.56
2016-11-09T07:35:06.429Z,7.61
2016-11-09T07:36:16.716Z,7.67
2016-11-09T07:37:27.054Z,7.73
2016-11-09T07:38:37.356Z,7.77
2016-11-09T07:39:47.321Z,7.85
2016-11-09T07:40:57.597Z,7.85
2016-11-09T07:42:07.544Z,7.95
2016-11-09T07:43:16.914Z,7.95
2016-11-09T07:44:27.218Z,7.92
2016-11-09T07:45:37.500Z,7.91
2016-11-09T07:46:47.471Z,8.03
2016-11-09T07:47:57.748Z,7.92
2016-11-09T07:49:07.419Z,8.01
2016-11-09T07:50:17.395Z,8.11
2016-11-09T07:51:27.670Z,8.09
2016-11-09T07:52:37.976Z,8.17
2016-11-09T07:53:47.970Z,8.11
2016-11-09T07:54:57.947Z,8.24
2016-11-09T07:56:08.240Z,8.24
2016-11-09T07:57:18.521Z,8.39
2016-11-09T07:58:28.801Z,8.5
2016-11-09T07:59:39.120Z,8.46
2016-11-09T08:00:48.795Z,8.49
2016-11-09T08:01:59.068Z,8.46
2016-11-09T08:03:09.045Z,8.58
2016-11-09T08:04:19.030Z,8.57
2016-11-09T08:05:28.698Z,8.62
2016-11-09T08:06:38.886Z,8.64
2016-11-09T08:07:49.155Z,8.83
2016-11-09T08:08:59.121Z,8.79
2016-11-09T08:10:09.396Z,8.71
2016-11-09T08:11:19.676Z,8.89
2016-11-09T08:12:28.733Z,8.92
2016-11-09T08:13:39.033Z,9.01
2016-11-09T08:14:49.402Z,9.16
2016-11-09T08:15:59.422Z,9.16
2016-11-09T08:17:09.088Z,9.23
2016-11-09T08:18:19.387Z,9.3
2016-11-09T08:19:29.669Z,9.24
2016-11-09T08:20:39.669Z,9.37
2016-11-09T08:21:49.667Z,9.41
2016-11-09T08:22:59.658Z,9.44
2016-11-09T08:24:09.686Z,9.6
2016-11-09T08:25:20.012Z,9.6
2016-11-09T08:26:30.040Z,9.67
2016-11-09T08:27:40.021Z,9.71
2016-11-09T08:28:50.336Z,9.75
2016-11-09T08:30:00.366Z,9.8
2016-11-09T08:31:10.668Z,9.81
2016-11-09T08:32:20.704Z,9.9
2016-11-09T08:33:30.715Z,9.93
2016-11-09T08:34:41.062Z,9.99
2016-11-09T08:35:51.077Z,10.17
2016-11-09T08:37:01.481Z,10.21
2016-11-09T08:38:11.791Z,10.2
2016-11-09T08:39:21.788Z,10.39
2016-11-09T08:40:31.772Z,10.42
2016-11-09T08:41:41.649Z,10.47
2016-11-09T08:42:51.953Z,10.51
2016-11-09T08:44:02.227Z,10.59
2016-11-09T08:45:12.552Z,10.66
2016-11-09T08:46:22.557Z,10.66
2016-11-09T08:47:32.618Z,10.7
2016-11-09T08:48:42.921Z,10.75
2016-11-09T08:49:53.244Z,10.73
2016-11-09T08:51:03.398Z,10.77
2016-11-09T08:52:13.455Z,10.85
2016-11-09T08:53:23.756Z,10.75
2016-11-09T08:54:33.758Z,10.85
2016-11-09T08:55:43.785Z,10.92
2016-11-09T08:56:53.771Z,10.94
2016-11-09T08:58:03.445Z,11.03
2016-11-09T08:59:13.795Z,10.98
2016-11-09T09:00:23.777Z,11.03
2016-11-09T09:01:34.120Z,11.06
2016-11-09T09:02:44.109Z,11.13
2016-11-09T09:03:54.435Z,11.12
2016-11-09T09:05:04.098Z,11.13
2016-11-09T09:06:14.373Z,11.24
2016-11-09T09:07:24.037Z,11.23
2016-11-09T09:08:34.037Z,11.28
2016-11-09T09:09:44.327Z,11.35
2016-11-09T09:10:54.013Z,11.38
2016-11-09T09:12:03.676Z,11.42
2016-11-09T09:13:13.680Z,11.34
2016-11-09T09:14:23.969Z,11.33
2016-11-09T09:15:34.009Z,11.39
2016-11-09T09:16:43.998Z,11.41
2016-11-09T09:17:54.276Z,11.42
2016-11-09T09:19:04.586Z,11.41
2016-11-09T09:20:14.261Z,11.39
2016-11-09T09:21:24.571Z,11.27
2016-11-09T09:22:34.583Z,11.27
2016-11-09T09:23:44.942Z,11.27
2016-11-09T09:24:54.947Z,11.21
2016-11-09T09:26:05.283Z,11.24
2016-11-09T09:27:15.576Z,11.15
2016-11-09T09:28:24.954Z,11.28
2016-11-09T09:29:34.930Z,11.27
2016-11-09T09:30:44.914Z,11.23
2016-11-09T09:31:55.208Z,11.26
2016-11-09T09:33:05.198Z,11.28
2016-11-09T09:34:14.856Z,11.3
2016-11-09T09:35:24.841Z,11.38
2016-11-09T09:36:34.204Z,11.35
2016-11-09T09:37:43.880Z,11.38
2016-11-09T09:38:53.879Z,11.41
2016-11-09T09:40:04.181Z,11.35
2016-11-09T09:41:14.484Z,11.35
2016-11-09T09:42:24.757Z,11.45
2016-11-09T09:43:34.748Z,11.45
2016-11-09T09:44:44.768Z,11.45
2016-11-09T09:45:54.752Z,11.49
2016-11-09T09:47:05.052Z,11.51
2016-11-09T09:48:15.380Z,11.66
2016-11-09T09:49:25.657Z,11.7
2016-11-09T09:50:35.966Z,11.66
2016-11-09T09:51:46.262Z,11.67
2016-11-09T09:52:56.579Z,11.67
2016-11-09T09:54:06.564Z,11.75
2016-11-09T09:55:16.242Z,11.66
2016-11-09T09:56:26.537Z,11.67
2016-11-09T09:57:36.199Z,11.66
2016-11-09T09:58:45.566Z,11.71
2016-11-09T09:59:55.242Z,11.71
2016-11-09T10:01:05.278Z,11.68
2016-11-09T10:02:15.618Z,11.78
2016-11-09T10:03:25.651Z,11.68
2016-11-09T10:04:35.975Z,11.67
2016-11-09T10:05:45.984Z,11.78
2016-11-09T10:06:56.297Z,11.73
2016-11-09T10:08:06.314Z,11.84
2016-11-09T10:09:16.382Z,11.85
2016-11-09T10:10:26.105Z,11.79
2016-11-09T10:11:36.104Z,11.88
2016-11-09T10:12:46.417Z,11.79
2016-11-09T10:13:56.130Z,11.95
2016-11-09T10:15:06.456Z,12.03
2016-11-09T10:16:16.164Z,12.04
2016-11-09T10:17:26.207Z,12.1
2016-11-09T10:18:36.233Z,12.13
2016-11-09T10:19:46.253Z,12.18
2016-11-09T10:20:56.572Z,12.11
2016-11-09T10:22:06.580Z,12.28
2016-11-09T10:23:16.874Z,12.33
2016-11-09T10:24:26.905Z,12.47
2016-11-09T10:25:36.613Z,12.7
2016-11-09T10:26:46.634Z,12.76
2016-11-09T10:27:56.340Z,12.63
2016-11-09T10:29:06.653Z,12.56
2016-11-09T10:30:16.672Z,12.59
2016-11-09T10:31:27.029Z,12.47
2016-11-09T10:32:37.090Z,12.51
2016-11-09T10:33:47.414Z,12.53
2016-11-09T10:34:57.749Z,12.51
2016-11-09T10:36:08.055Z,12.58
2016-11-09T10:37:18.052Z,12.63
2016-11-09T10:38:28.032Z,12.61
2016-11-09T10:39:38.007Z,12.59
2016-11-09T10:40:47.989Z,12.59
2016-11-09T10:41:57.990Z,12.61
2016-11-09T10:43:08.292Z,12.66
2016-11-09T10:44:18.273Z,12.65
2016-11-09T10:45:28.576Z,12.65
2016-11-09T10:46:38.558Z,12.63
2016-11-09T10:47:48.854Z,12.61
2016-11-09T10:48:58.535Z,12.61
2016-11-09T10:50:08.850Z,12.71
2016-11-09T10:51:18.531Z,12.84
2016-11-09T10:52:28.819Z,12.88
2016-11-09T10:53:38.495Z,12.91
2016-11-09T10:54:48.784Z,12.98
2016-11-09T10:55:58.774Z,13.02
2016-11-09T10:57:08.490Z,13.06
2016-11-09T10:58:19.058Z,13.14
2016-11-09T10:59:29.706Z,13.25
2016-11-09T11:00:40.298Z,13.25
2016-11-09T11:01:51.142Z,13.24
2016-11-09T11:03:01.517Z,13.27
2016-11-09T11:04:11.852Z,13.31
2016-11-09T11:05:22.165Z,13.29
2016-11-09T11:06:32.451Z,13.32
2016-11-09T11:07:42.722Z,13.35
2016-11-09T11:08:53.028Z,13.36
2016-11-09T11:10:03.303Z,13.45
2016-11-09T11:11:13.586Z,13.53
2016-11-09T11:12:23.572Z,13.57
2016-11-09T11:13:33.571Z,13.6
2016-11-09T11:14:43.570Z,13.55
2016-11-09T11:15:53.553Z,13.6
2016-11-09T11:17:03.572Z,13.62
2016-11-09T11:18:13.862Z,13.6
2016-11-09T11:19:23.865Z,13.66
2016-11-09T11:20:33.236Z,13.63
2016-11-09T11:21:43.545Z,13.58
2016-11-09T11:22:53.528Z,13.65
2016-11-09T11:24:03.870Z,13.62
2016-11-09T11:25:14.174Z,13.72
2016-11-09T11:26:24.473Z,13.75
2016-11-09T11:27:34.803Z,13.73
2016-11-09T11:28:44.787Z,13.65
2016-11-09T11:29:55.084Z,13.66
2016-11-09T11:31:05.063Z,13.58
2016-11-09T11:32:15.365Z,13.62
2016-11-09T11:33:25.337Z,13.57
2016-11-09T11:34:35.626Z,13.57
2016-11-09T11:35:45.930Z,13.55
2016-11-09T11:36:55.918Z,13.62
2016-11-09T11:38:06.416Z,13.58
2016-11-09T11:39:16.288Z,13.6
2016-11-09T11:40:25.993Z,13.57
2016-11-09T11:41:36.019Z,13.65
2016-11-09T11:42:46.342Z,13.72
2016-11-09T11:43:56.036Z,13.83
2016-11-09T11:45:06.038Z,13.83
2016-11-09T11:46:16.385Z,13.93
2016-11-09T11:47:26.419Z,13.94
2016-11-09T11:48:36.413Z,14.01
2016-11-09T11:49:46.414Z,13.99
2016-11-09T11:50:56.408Z,14.05
2016-11-09T11:52:06.420Z,13.95
2016-11-09T11:53:16.438Z,13.97
2016-11-09T11:54:26.799Z,13.97
2016-11-09T11:55:37.122Z,13.9
2016-11-09T11:56:47.460Z,13.95
2016-11-09T11:57:57.823Z,13.88
2016-11-09T11:59:07.216Z,13.93
2016-11-09T12:00:17.518Z,13.9
2016-11-09T12:01:27.224Z,13.86
2016-11-09T12:02:37.581Z,13.87
2016-11-09T12:03:47.576Z,13.95
2016-11-09T12:04:57.571Z,13.99
2016-11-09T12:06:07.275Z,13.95
2016-11-09T12:07:17.590Z,13.95
2016-11-09T12:08:27.898Z,14.12
2016-11-09T12:09:37.275Z,14.08
2016-11-09T12:10:47.289Z,14.15
2016-11-09T12:11:56.951Z,14.16
2016-11-09T12:13:06.944Z,14.16
2016-11-09T12:14:16.655Z,14.23
2016-11-09T12:15:26.363Z,14.16
2016-11-09T12:16:36.467Z,14.19
2016-11-09T12:17:46.453Z,14.21
2016-11-09T12:18:56.766Z,14.16
2016-11-09T12:20:07.099Z,14.16
2016-11-09T12:21:17.399Z,14.11
2016-11-09T12:22:27.397Z,14.08
2016-11-09T12:23:37.718Z,14.15
2016-11-09T12:24:47.697Z,13.84
2016-11-09T12:25:58.025Z,13.44
2016-11-09T12:27:08.038Z,13.65
2016-11-09T12:28:18.043Z,13.7
2016-11-09T12:29:28.037Z,13.73
2016-11-09T12:30:38.045Z,13.39
2016-11-09T12:31:48.354Z,13.47
2016-11-09T12:32:58.894Z,13.54
2016-11-09T12:34:09.789Z,13.51
2016-11-09T12:35:20.072Z,13.6
2016-11-09T12:36:30.362Z,13.57
2016-11-09T12:37:40.650Z,13.58
2016-11-09T12:38:50.948Z,13.62
2016-11-09T12:40:00.629Z,13.62
2016-11-09T12:41:10.917Z,13.68
2016-11-09T12:42:20.956Z,13.6
2016-11-09T12:43:31.254Z,13.51
2016-11-09T12:44:41.696Z,13.62
2016-11-09T12:45:51.386Z,13.6
2016-11-09T12:47:01.367Z,13.6
2016-11-09T12:48:11.054Z,13.5
2016-11-09T12:49:21.077Z,13.06
2016-11-09T12:50:31.099Z,13.14
2016-11-09T12:51:41.097Z,13.27
2016-11-09T12:52:50.812Z,13.09
2016-11-09T12:54:01.115Z,13.02
2016-11-09T12:55:11.423Z,13.19
2016-11-09T12:56:21.402Z,13.21
2016-11-09T12:57:31.085Z,13.31
2016-11-09T12:58:41.623Z,13.5
2016-11-09T12:59:51.926Z,13.57
2016-11-09T13:01:02.229Z,13.57
2016-11-09T13:02:12.228Z,13.65
2016-11-09T13:03:22.255Z,13.54
2016-11-09T13:04:32.565Z,13.57
2016-11-09T13:05:42.867Z,13.55
2016-11-09T13:06:53.192Z,13.58
2016-11-09T13:08:03.519Z,13.58
2016-11-09T13:09:13.231Z,13.63
2016-11-09T13:10:23.550Z,13.72
2016-11-09T13:11:33.545Z,13.68
2016-11-09T13:12:43.863Z,13.66
2016-11-09T13:13:53.872Z,13.62
2016-11-09T13:15:03.881Z,13.6
2016-11-09T13:16:14.215Z,13.57
2016-11-09T13:17:24.214Z,13.63
2016-11-09T13:18:34.236Z,13.55
2016-11-09T13:19:44.534Z,13.55
2016-11-09T13:20:54.527Z,13.55
2016-11-09T13:22:04.831Z,13.63
2016-11-09T13:23:15.134Z,13.55
2016-11-09T13:24:25.124Z,13.6
2016-11-09T13:25:34.807Z,13.62
2016-11-09T13:26:44.786Z,13.48
2016-11-09T13:27:54.762Z,13.51
2016-11-09T13:29:04.746Z,13.5
2016-11-09T13:30:14.729Z,13.47
2016-11-09T13:31:25.012Z,13.48
2016-11-09T13:32:35.020Z,13.4
2016-11-09T13:33:45.043Z,13.35
2016-11-09T13:34:55.390Z,13.32
2016-11-09T13:36:05.074Z,13.35
2016-11-09T13:37:15.044Z,13.31
2016-11-09T13:38:25.379Z,13.21
2016-11-09T13:39:35.360Z,13.16
2016-11-09T13:40:45.669Z,13.16
2016-11-09T13:41:55.402Z,13.03
2016-11-09T13:43:05.394Z,12.94
2016-11-09T13:44:15.682Z,12.89
2016-11-09T13:45:25.973Z,12.53
2016-11-09T13:46:36.258Z,12.37
2016-11-09T13:47:46.558Z,12.22
2016-11-09T13:48:56.852Z,11.89
2016-11-09T13:50:06.830Z,11.86
2016-11-09T13:51:16.827Z,11.79
2016-11-09T13:52:27.113Z,11.71
2016-11-09T13:53:37.405Z,11.71
2016-11-09T13:54:47.711Z,11.71
2016-11-09T13:55:57.714Z,11.56
2016-11-09T13:57:08.030Z,11.51
2016-11-09T13:58:18.013Z,11.39
2016-11-09T13:59:27.687Z,11.49
2016-11-09T14:00:37.706Z,11.49
2016-11-09T14:01:47.987Z,11.38
2016-11-09T14:02:58.282Z,11.33
2016-11-09T14:04:08.314Z,11.45
2016-11-09T14:05:18.601Z,11.51
2016-11-09T14:06:28.887Z,11.64
2016-11-09T14:07:38.252Z,11.6
2016-11-09T14:08:47.934Z,11.68
2016-11-09T14:09:58.230Z,11.73
2016-11-09T14:11:08.206Z,11.67
2016-11-09T14:12:18.291Z,11.6
2016-11-09T14:13:28.294Z,11.64
2016-11-09T14:14:38.286Z,11.7
2016-11-09T14:15:48.594Z,11.61
2016-11-09T14:16:58.251Z,11.6
2016-11-09T14:18:08.249Z,11.57
2016-11-09T14:19:18.223Z,11.56
2016-11-09T14:20:27.903Z,11.46
2016-11-09T14:21:38.196Z,11.35
2016-11-09T14:22:48.504Z,11.42
2016-11-09T14:23:58.794Z,11.41
2016-11-09T14:25:08.952Z,11.3
2016-11-09T14:26:18.951Z,11.23
2016-11-09T14:27:29.240Z,11.26
2016-11-09T14:28:39.291Z,11.15
2016-11-09T14:29:49.279Z,10.94
2016-11-09T14:30:59.575Z,10.98
2016-11-09T14:32:09.559Z,10.97
2016-11-09T14:33:19.224Z,10.85
2016-11-09T14:34:29.524Z,10.84
2016-11-09T14:35:39.811Z,10.66
2016-11-09T14:36:49.790Z,10.66
2016-11-09T14:38:00.073Z,10.49
2016-11-09T14:39:10.068Z,10.52
2016-11-09T14:40:20.341Z,10.47
2016-11-09T14:41:30.319Z,10.32
2016-11-09T14:42:40.314Z,10.21
2016-11-09T14:43:50.617Z,10.21
2016-11-09T14:45:00.620Z,10.23
2016-11-09T14:46:10.612Z,10.13
2016-11-09T14:47:20.910Z,10.05
2016-11-09T14:48:31.206Z,9.95
2016-11-09T14:49:41.190Z,9.98
2016-11-09T14:50:51.193Z,9.93
2016-11-09T14:52:01.485Z,9.85
2016-11-09T14:53:11.473Z,9.81
2016-11-09T14:54:21.753Z,9.84
2016-11-09T14:55:32.058Z,9.77
2016-11-09T14:56:42.347Z,9.6
2016-11-09T14:57:52.039Z,9.6
2016-11-09T14:59:02.342Z,9.59
2016-11-09T15:00:12.342Z,9.57
2016-11-09T15:01:22.656Z,9.56
2016-11-09T15:02:32.652Z,9.44
2016-11-09T15:03:42.042Z,9.5
2016-11-09T15:04:52.036Z,9.42
2016-11-09T15:06:01.702Z,9.35
2016-11-09T15:07:11.995Z,9.27
2016-11-09T15:08:21.654Z,9.24
2016-11-09T15:09:31.628Z,9.24
2016-11-09T15:10:41.651Z,9.16
2016-11-09T15:11:51.640Z,9.11
2016-11-09T15:13:01.630Z,9.16
2016-11-09T15:14:11.949Z,9.11
2016-11-09T15:15:21.956Z,9.01
2016-11-09T15:16:31.643Z,8.95
2016-11-09T15:17:41.993Z,8.94
2016-11-09T15:18:52.301Z,8.76
2016-11-09T15:20:02.449Z,8.76
2016-11-09T15:21:12.837Z,8.67
2016-11-09T15:22:23.146Z,8.67
2016-11-09T15:23:33.444Z,8.67
2016-11-09T15:24:43.536Z,8.61
2016-11-09T15:25:53.891Z,8.6
2016-11-09T15:27:04.184Z,8.6
2016-11-09T15:28:13.878Z,8.46
2016-11-09T15:29:24.191Z,8.42
2016-11-09T15:30:34.187Z,8.4
2016-11-09T15:31:44.513Z,8.32
2016-11-09T15:32:54.811Z,8.21
2016-11-09T15:34:04.817Z,8.24
2016-11-09T15:35:14.806Z,8.14
2016-11-09T15:36:24.532Z,8.19
2016-11-09T15:37:34.522Z,8.17
2016-11-09T15:38:44.199Z,8.01
2016-11-09T15:39:54.504Z,8.03
2016-11-09T15:41:04.479Z,7.92
2016-11-09T15:42:14.467Z,7.93
2016-11-09T15:43:23.897Z,7.85
2016-11-09T15:44:34.192Z,7.89
2016-11-09T15:45:44.478Z,7.89
2016-11-09T15:46:54.521Z,7.86
2016-11-09T15:48:04.506Z,7.83
2016-11-09T15:49:14.832Z,7.85
2016-11-09T15:50:24.810Z,7.77
2016-11-09T15:51:34.473Z,7.77
2016-11-09T15:52:44.775Z,7.73